^^
Station Historical Data
Daily Summary for March 1, 2019 Units:  English    Metric   Both
« Previous Day
Next Day »
Daily Weekly Monthly Yearly Custom
  High: Low: Average:
Temperature: 17.3 °F 2.1 °F 10.1 °F
Dew Point: 11.2 °F -2.7 °F 5.9 °F
Humidity: 89% 72% 83%
Wind Speed: 12.0mph 0.0mph 4.2mph
Wind Gust: 14.0mph - -
Wind- - WSW
Pressure: 30.42 in 30.04 in -
Precipitation: 0.00 in    
Historical Graphs
 
 
Tabular Data for March 1, 2019
Time Temperature Dew Point Pressure Wind Wind Speed Wind Gust Humidity Rainfall Rate (Hourly) solar Conditions
00:04 10.5 °F 6.6 °F 30.05 in SE 3.0 mph 4.0 mph 84% 0.00 in 0.00 W/m2
00:09 10.4 °F 6.5 °F 30.05 in ESE 2.0 mph 4.0 mph 84% 0.00 in 0.00 W/m2
00:14 10.5 °F 6.6 °F 30.05 in ESE 1.0 mph 3.0 mph 84% 0.00 in 0.00 W/m2
00:19 10.4 °F 6.5 °F 30.05 in ESE 1.0 mph 3.0 mph 84% 0.00 in 0.00 W/m2
00:24 10.2 °F 6.3 °F 30.06 in ESE 2.0 mph 3.0 mph 84% 0.00 in 0.00 W/m2
00:29 10.1 °F 6.2 °F 30.05 in ESE 3.0 mph 3.0 mph 84% 0.00 in 0.00 W/m2
00:34 10.1 °F 6.2 °F 30.05 in ENE 4.0 mph 5.0 mph 84% 0.00 in 0.00 W/m2
00:39 10.0 °F 6.1 °F 30.05 in ENE 3.0 mph 5.0 mph 84% 0.00 in 0.00 W/m2
00:44 9.9 °F 6.0 °F 30.05 in ENE 3.0 mph 4.0 mph 84% 0.00 in 0.00 W/m2
00:49 9.8 °F 5.9 °F 30.04 in ENE 2.0 mph 4.0 mph 84% 0.00 in 0.00 W/m2
00:54 9.9 °F 6.3 °F 30.04 in ENE 3.0 mph 4.0 mph 85% 0.00 in 0.00 W/m2
00:59 10.2 °F 6.6 °F 30.04 in ENE 4.0 mph 4.0 mph 85% 0.00 in 0.00 W/m2
01:04 10.4 °F 6.8 °F 30.04 in ENE 3.0 mph 4.0 mph 85% 0.00 in 0.00 W/m2
01:09 10.5 °F 6.6 °F 30.05 in ENE 1.0 mph 4.0 mph 84% 0.00 in 0.00 W/m2
01:14 10.6 °F 6.7 °F 30.04 in ENE 1.0 mph 4.0 mph 84% 0.00 in 0.00 W/m2
01:19 10.8 °F 6.9 °F 30.05 in ENE 2.0 mph 2.0 mph 84% 0.00 in 0.00 W/m2
01:24 10.9 °F 7.0 °F 30.05 in ENE 2.0 mph 3.0 mph 84% 0.00 in 0.00 W/m2
01:29 10.9 °F 7.0 °F 30.05 in ENE 1.0 mph 3.0 mph 84% 0.00 in 0.00 W/m2
01:34 11.0 °F 7.1 °F 30.05 in ENE 1.0 mph 2.0 mph 84% 0.00 in 0.00 W/m2
01:39 11.0 °F 7.1 °F 30.05 in ENE 1.0 mph 2.0 mph 84% 0.00 in 0.00 W/m2
01:44 11.1 °F 7.2 °F 30.05 in ENE 2.0 mph 2.0 mph 84% 0.00 in 0.00 W/m2
01:49 11.2 °F 7.3 °F 30.05 in ENE 1.0 mph 2.0 mph 84% 0.00 in 0.00 W/m2
01:54 11.2 °F 7.3 °F 30.05 in SE 3.0 mph 3.0 mph 84% 0.00 in 0.00 W/m2
01:59 10.9 °F 7.0 °F 30.05 in SE 4.0 mph 5.0 mph 84% 0.00 in 0.00 W/m2
02:04 10.3 °F 6.2 °F 30.05 in SE 2.0 mph 5.0 mph 83% 0.00 in 0.00 W/m2
02:09 9.8 °F 5.9 °F 30.05 in ESE 3.0 mph 4.0 mph 84% 0.00 in 0.00 W/m2
02:14 9.4 °F 5.5 °F 30.05 in East 2.0 mph 6.0 mph 84% 0.00 in 0.00 W/m2
02:19 9.3 °F 5.4 °F 30.05 in ESE 3.0 mph 6.0 mph 84% 0.00 in 0.00 W/m2
02:24 9.3 °F 5.7 °F 30.05 in SE 3.0 mph 5.0 mph 85% 0.00 in 0.00 W/m2
02:29 9.4 °F 5.8 °F 30.05 in ESE 1.0 mph 5.0 mph 85% 0.00 in 0.00 W/m2
02:34 9.5 °F 6.2 °F 30.05 in ESE 1.0 mph 4.0 mph 86% 0.00 in 0.00 W/m2
02:39 9.6 °F 6.0 °F 30.05 in ENE 2.0 mph 3.0 mph 85% 0.00 in 0.00 W/m2
02:44 9.7 °F 6.4 °F 30.05 in ENE 3.0 mph 4.0 mph 86% 0.00 in 0.00 W/m2
02:49 9.7 °F 6.1 °F 30.05 in Calm   4.0 mph 85% 0.00 in 0.00 W/m2
02:54 9.7 °F 6.1 °F 30.05 in Calm   3.0 mph 85% 0.00 in 0.00 W/m2
02:59 9.7 °F 6.1 °F 30.05 in Calm   2.0 mph 85% 0.00 in 0.00 W/m2
03:04 9.7 °F 6.4 °F 30.05 in ESE 2.0 mph 2.0 mph 86% 0.00 in 0.00 W/m2
03:09 9.6 °F 6.3 °F 30.05 in ESE 2.0 mph 3.0 mph 86% 0.00 in 0.00 W/m2
03:14 9.6 °F 6.3 °F 30.05 in SE 3.0 mph 3.0 mph 86% 0.00 in 0.00 W/m2
03:19 9.7 °F 6.4 °F 30.05 in SE 3.0 mph 4.0 mph 86% 0.00 in 0.00 W/m2
03:24 9.8 °F 6.5 °F 30.04 in ESE 3.0 mph 4.0 mph 86% 0.00 in 0.00 W/m2
03:29 9.8 °F 6.5 °F 30.04 in ESE 2.0 mph 4.0 mph 86% 0.00 in 0.00 W/m2
03:34 9.9 °F 6.6 °F 30.04 in ESE 2.0 mph 4.0 mph 86% 0.00 in 0.00 W/m2
03:39 10.0 °F 6.6 °F 30.04 in ESE 3.0 mph 5.0 mph 86% 0.00 in 0.00 W/m2
03:44 9.9 °F 6.6 °F 30.04 in SE 3.0 mph 5.0 mph 86% 0.00 in 0.00 W/m2
03:49 9.9 °F 6.6 °F 30.04 in ESE 2.0 mph 4.0 mph 86% 0.00 in 0.00 W/m2
03:54 9.9 °F 6.6 °F 30.04 in ESE 1.0 mph 4.0 mph 86% 0.00 in 0.00 W/m2
03:59 10.0 °F 6.6 °F 30.04 in Calm   3.0 mph 86% 0.00 in 0.00 W/m2
04:04 10.0 °F 6.6 °F 30.04 in ESE 1.0 mph 2.0 mph 86% 0.00 in 0.00 W/m2
04:09 10.0 °F 6.6 °F 30.04 in Calm   2.0 mph 86% 0.00 in 0.00 W/m2
04:14 10.1 °F 6.7 °F 30.04 in Calm   2.0 mph 86% 0.00 in 0.00 W/m2
04:19 10.1 °F 6.7 °F 30.04 in ESE 1.0 mph 1.0 mph 86% 0.00 in 0.00 W/m2
04:24 10.1 °F 6.7 °F 30.04 in Calm   1.0 mph 86% 0.00 in 0.00 W/m2
04:29 10.1 °F 6.7 °F 30.04 in ESE 1.0 mph 1.0 mph 86% 0.00 in 0.00 W/m2
04:34 10.2 °F 7.1 °F 30.05 in ESE 1.0 mph 2.0 mph 87% 0.00 in 0.00 W/m2
04:39 10.3 °F 7.2 °F 30.05 in West 2.0 mph 3.0 mph 87% 0.00 in 0.00 W/m2
04:44 10.2 °F 7.1 °F 30.05 in West 1.0 mph 3.0 mph 87% 0.00 in 0.00 W/m2
04:49 10.0 °F 6.9 °F 30.05 in Calm   3.0 mph 87% 0.00 in 0.00 W/m2
04:54 9.9 °F 6.8 °F 30.05 in Calm   2.0 mph 87% 0.00 in 0.00 W/m2
04:59 9.9 °F 6.8 °F 30.05 in Calm     87% 0.00 in 0.00 W/m2
05:04 9.9 °F 6.8 °F 30.06 in West 1.0 mph 2.0 mph 87% 0.00 in 0.00 W/m2
05:09 9.8 °F 6.7 °F 30.06 in West 1.0 mph 2.0 mph 87% 0.00 in 0.00 W/m2
05:14 9.8 °F 7.0 °F 30.05 in Calm   2.0 mph 88% 0.00 in 0.00 W/m2
05:19 9.9 °F 7.1 °F 30.05 in Calm   2.0 mph 88% 0.00 in 0.00 W/m2
05:24 10.0 °F 7.2 °F 30.05 in Calm   2.0 mph 88% 0.00 in 0.00 W/m2
05:29 10.1 °F 7.3 °F 30.06 in West 1.0 mph 2.0 mph 88% 0.00 in 0.00 W/m2
05:34 10.2 °F 7.4 °F 30.06 in West 2.0 mph 2.0 mph 88% 0.00 in 0.00 W/m2
05:39 10.3 °F 7.5 °F 30.07 in NW 2.0 mph 3.0 mph 88% 0.00 in 0.00 W/m2
05:44 10.3 °F 7.5 °F 30.07 in NW 2.0 mph 3.0 mph 88% 0.00 in 0.00 W/m2
05:49 10.2 °F 7.4 °F 30.07 in NW 1.0 mph 3.0 mph 88% 0.00 in 0.00 W/m2
05:54 10.1 °F 7.3 °F 30.07 in NW 2.0 mph 3.0 mph 88% 0.00 in 0.00 W/m2
05:59 10.1 °F 7.3 °F 30.07 in NW 2.0 mph 4.0 mph 88% 0.00 in 0.00 W/m2
06:04 10.1 °F 7.3 °F 30.07 in NW 2.0 mph 4.0 mph 88% 0.00 in 0.00 W/m2
06:09 10.1 °F 7.3 °F 30.07 in NW 2.0 mph 3.0 mph 88% 0.00 in 0.00 W/m2
06:14 10.3 °F 7.7 °F 30.08 in NW 2.0 mph 3.0 mph 89% 0.00 in 0.00 W/m2
06:19 10.3 °F 7.5 °F 30.07 in NW 2.0 mph 3.0 mph 88% 0.00 in 0.00 W/m2
06:24 10.4 °F 7.8 °F 30.07 in NNW 1.0 mph 3.0 mph 89% 0.00 in 0.00 W/m2
06:29 10.5 °F 7.9 °F 30.07 in North 2.0 mph 3.0 mph 89% 0.00 in 0.00 W/m2
06:34 10.7 °F 8.1 °F 30.08 in North 2.0 mph 3.0 mph 89% 0.00 in 0.00 W/m2
06:39 10.8 °F 8.2 °F 30.08 in North 2.0 mph 3.0 mph 89% 0.00 in 0.00 W/m2
06:44 10.8 °F 8.2 °F 30.08 in North 2.0 mph 2.0 mph 89% 0.00 in 0.00 W/m2
06:49 10.8 °F 8.2 °F 30.08 in Calm   2.0 mph 89% 0.00 in 0.00 W/m2
06:54 10.8 °F 8.2 °F 30.09 in North 1.0 mph 2.0 mph 89% 0.00 in 0.00 W/m2
06:59 10.8 °F 8.2 °F 30.09 in North 1.0 mph 2.0 mph 89% 0.00 in 0.00 W/m2
07:04 10.8 °F 8.2 °F 30.09 in North 2.0 mph 2.0 mph 89% 0.00 in 0.00 W/m2
07:09 10.8 °F 8.2 °F 30.09 in Calm   2.0 mph 89% 0.00 in 0.00 W/m2
07:14 10.8 °F 8.2 °F 30.09 in Calm   2.0 mph 89% 0.00 in 0.00 W/m2
07:19 10.8 °F 8.2 °F 30.10 in Calm   2.0 mph 89% 0.00 in 0.00 W/m2
07:24 10.9 °F 8.3 °F 30.10 in Calm     89% 0.00 in 0.00 W/m2
07:29 10.9 °F 8.3 °F 30.10 in Calm     89% 0.00 in 0.00 W/m2
07:34 11.0 °F 8.4 °F 30.11 in Calm     89% 0.00 in 5.00 W/m2
07:39 11.1 °F 8.5 °F 30.11 in Calm     89% 0.00 in 7.00 W/m2
07:44 11.1 °F 8.5 °F 30.11 in North 2.0 mph 3.0 mph 89% 0.00 in 7.00 W/m2
07:49 11.1 °F 8.5 °F 30.11 in North 2.0 mph 3.0 mph 89% 0.00 in 9.00 W/m2
07:54 11.2 °F 8.6 °F 30.11 in North 1.0 mph 3.0 mph 89% 0.00 in 12.00 W/m2
07:59 11.2 °F 8.6 °F 30.11 in North 1.0 mph 3.0 mph 89% 0.00 in 14.00 W/m2
08:04 11.3 °F 8.7 °F 30.12 in North 2.0 mph 2.0 mph 89% 0.00 in 19.00 W/m2
08:09 11.4 °F 8.8 °F 30.12 in North 2.0 mph 3.0 mph 89% 0.00 in 23.00 W/m2
08:14 11.4 °F 8.8 °F 30.12 in North 2.0 mph 3.0 mph 89% 0.00 in 25.00 W/m2
08:19 11.5 °F 8.9 °F 30.12 in North 2.0 mph 3.0 mph 89% 0.00 in 26.00 W/m2
08:24 11.6 °F 9.0 °F 30.12 in NW 3.0 mph 4.0 mph 89% 0.00 in 35.00 W/m2
08:29 11.3 °F 8.4 °F 30.12 in NW 4.0 mph 5.0 mph 88% 0.00 in 42.00 W/m2
08:34 10.9 °F 8.0 °F 30.12 in NW 5.0 mph 5.0 mph 88% 0.00 in 49.00 W/m2
08:39 10.9 °F 8.0 °F 30.12 in NW 2.0 mph 5.0 mph 88% 0.00 in 54.00 W/m2
08:44 11.0 °F 8.1 °F 30.12 in North 2.0 mph 5.0 mph 88% 0.00 in 60.00 W/m2
08:49 11.5 °F 8.9 °F 30.13 in North 5.0 mph 5.0 mph 89% 0.00 in 63.00 W/m2
08:54 11.9 °F 9.3 °F 30.13 in North 3.0 mph 5.0 mph 89% 0.00 in 67.00 W/m2
08:59 12.2 °F 9.3 °F 30.13 in North 2.0 mph 5.0 mph 88% 0.00 in 69.00 W/m2
09:04 12.1 °F 9.0 °F 30.13 in North 3.0 mph 4.0 mph 87% 0.00 in 62.00 W/m2
09:09 11.7 °F 8.6 °F 30.14 in NW 4.0 mph 5.0 mph 87% 0.00 in 60.00 W/m2
09:14 11.5 °F 8.4 °F 30.14 in NW 3.0 mph 5.0 mph 87% 0.00 in 69.00 W/m2
09:19 11.5 °F 8.4 °F 30.14 in NW 4.0 mph 5.0 mph 87% 0.00 in 102.00 W/m2
09:24 11.8 °F 8.7 °F 30.15 in NW 4.0 mph 5.0 mph 87% 0.00 in 127.00 W/m2
09:29 12.1 °F 9.0 °F 30.15 in NW 4.0 mph 7.0 mph 87% 0.00 in 123.00 W/m2
09:34 12.0 °F 8.9 °F 30.15 in NW 4.0 mph 7.0 mph 87% 0.00 in 105.00 W/m2
09:39 11.8 °F 8.7 °F 30.15 in NW 2.0 mph 7.0 mph 87% 0.00 in 95.00 W/m2
09:44 11.8 °F 8.7 °F 30.16 in NNW 4.0 mph 6.0 mph 87% 0.00 in 90.00 W/m2
09:49 12.1 °F 9.0 °F 30.16 in NNW 5.0 mph 6.0 mph 87% 0.00 in 90.00 W/m2
09:54 12.2 °F 9.1 °F 30.16 in NNW 6.0 mph 7.0 mph 87% 0.00 in 88.00 W/m2
09:59 12.3 °F 9.2 °F 30.16 in NNW 5.0 mph 7.0 mph 87% 0.00 in 90.00 W/m2
10:04 12.5 °F 9.4 °F 30.16 in NNW 5.0 mph 7.0 mph 87% 0.00 in 95.00 W/m2
10:09 12.7 °F 9.6 °F 30.16 in NNW 4.0 mph 6.0 mph 87% 0.00 in 105.00 W/m2
10:14 12.7 °F 9.6 °F 30.16 in NNW 6.0 mph 8.0 mph 87% 0.00 in 114.00 W/m2
10:19 12.8 °F 9.7 °F 30.17 in NNW 6.0 mph 9.0 mph 87% 0.00 in 125.00 W/m2
10:24 12.5 °F 9.1 °F 30.17 in WNW 7.0 mph 9.0 mph 86% 0.00 in 135.00 W/m2
10:29 12.0 °F 8.6 °F 30.17 in NNW 5.0 mph 9.0 mph 86% 0.00 in 149.00 W/m2
10:34 12.1 °F 9.0 °F 30.17 in NNW 6.0 mph 9.0 mph 87% 0.00 in 148.00 W/m2
10:39 12.3 °F 9.2 °F 30.17 in NW 5.0 mph 9.0 mph 87% 0.00 in 156.00 W/m2
10:44 12.6 °F 9.5 °F 30.18 in NW 8.0 mph 10.0 mph 87% 0.00 in 160.00 W/m2
10:49 12.8 °F 9.7 °F 30.18 in NNW 8.0 mph 10.0 mph 87% 0.00 in 169.00 W/m2
10:54 13.3 °F 10.2 °F 30.18 in North 9.0 mph 11.0 mph 87% 0.00 in 163.00 W/m2
10:59 14.0 °F 10.8 °F 30.18 in North 6.0 mph 11.0 mph 87% 0.00 in 146.00 W/m2
11:04 14.3 °F 10.9 °F 30.18 in North 7.0 mph 9.0 mph 86% 0.00 in 135.00 W/m2
11:09 14.6 °F 11.2 °F 30.19 in North 7.0 mph 9.0 mph 86% 0.00 in 137.00 W/m2
11:14 14.6 °F 10.6 °F 30.19 in North 9.0 mph 9.0 mph 84% 0.00 in 142.00 W/m2
11:19 14.5 °F 10.5 °F 30.20 in North 9.0 mph 12.0 mph 84% 0.00 in 151.00 W/m2
11:24 14.3 °F 10.1 °F 30.20 in NNW 9.0 mph 13.0 mph 83% 0.00 in 165.00 W/m2
11:29 14.4 °F 10.2 °F 30.20 in NNW 9.0 mph 13.0 mph 83% 0.00 in 174.00 W/m2
11:34 14.6 °F 10.4 °F 30.20 in NNW 7.0 mph 11.0 mph 83% 0.00 in 167.00 W/m2
11:39 14.3 °F 9.8 °F 30.20 in NNW 12.0 mph 12.0 mph 82% 0.00 in 158.00 W/m2
11:44 13.4 °F 8.9 °F 30.20 in NNW 8.0 mph 12.0 mph 82% 0.00 in 158.00 W/m2
11:49 13.2 °F 9.3 °F 30.21 in NNW 8.0 mph 13.0 mph 84% 0.00 in 165.00 W/m2
11:54 13.5 °F 9.6 °F 30.21 in NNW 7.0 mph 13.0 mph 84% 0.00 in 176.00 W/m2
11:59 13.4 °F 9.2 °F 30.21 in NNW 11.0 mph 12.0 mph 83% 0.00 in 188.00 W/m2
12:04 13.3 °F 9.1 °F 30.21 in NNW 10.0 mph 12.0 mph 83% 0.00 in 181.00 W/m2
12:09 13.8 °F 9.9 °F 30.22 in NNW 8.0 mph 12.0 mph 84% 0.00 in 190.00 W/m2
12:14 13.6 °F 9.1 °F 30.21 in NNW 8.0 mph 12.0 mph 82% 0.00 in 192.00 W/m2
12:19 13.6 °F 9.1 °F 30.22 in North 10.0 mph 11.0 mph 82% 0.00 in 171.00 W/m2
12:24 13.8 °F 9.3 °F 30.22 in North 10.0 mph 11.0 mph 82% 0.00 in 167.00 W/m2
12:29 14.2 °F 9.7 °F 30.22 in NNW 5.0 mph 11.0 mph 82% 0.00 in 181.00 W/m2
12:34 14.5 °F 9.7 °F 30.22 in North 7.0 mph 10.0 mph 81% 0.00 in 211.00 W/m2
12:39 15.4 °F 10.6 °F 30.22 in North 6.0 mph 8.0 mph 81% 0.00 in 253.00 W/m2
12:44 16.3 °F 11.2 °F 30.22 in North 7.0 mph 8.0 mph 80% 0.00 in 290.00 W/m2
12:49 16.8 °F 11.1 °F 30.22 in North 6.0 mph 8.0 mph 78% 0.00 in 339.00 W/m2
12:54 17.0 °F 11.0 °F 30.22 in NNW 5.0 mph 8.0 mph 77% 0.00 in 373.00 W/m2
12:59 17.3 °F 11.0 °F 30.22 in North 8.0 mph 9.0 mph 76% 0.00 in 480.00 W/m2
13:04 17.0 °F 10.1 °F 30.22 in North 8.0 mph 9.0 mph 74% 0.00 in 506.00 W/m2
13:09 16.2 °F 9.7 °F 30.23 in NNW 7.0 mph 9.0 mph 75% 0.00 in 517.00 W/m2
13:14 14.6 °F 8.1 °F 30.23 in NNW 5.0 mph 9.0 mph 75% 0.00 in 526.00 W/m2
13:19 14.0 °F 8.1 °F 30.23 in NNW 7.0 mph 9.0 mph 77% 0.00 in 536.00 W/m2
13:24 14.0 °F 8.4 °F 30.23 in NNW 7.0 mph 9.0 mph 78% 0.00 in 550.00 W/m2
13:29 13.9 °F 8.3 °F 30.23 in NNW 7.0 mph 10.0 mph 78% 0.00 in 557.00 W/m2
13:34 14.2 °F 8.9 °F 30.23 in North 6.0 mph 10.0 mph 79% 0.00 in 566.00 W/m2
13:39 15.0 °F 9.4 °F 30.23 in NNW 7.0 mph 10.0 mph 78% 0.00 in 577.00 W/m2
13:44 15.2 °F 9.3 °F 30.23 in NNW 7.0 mph 9.0 mph 77% 0.00 in 585.00 W/m2
13:49 15.0 °F 9.1 °F 30.23 in NNW 7.0 mph 9.0 mph 77% 0.00 in 589.00 W/m2
13:54 14.4 °F 8.5 °F 30.23 in NNW 9.0 mph 10.0 mph 77% 0.00 in 589.00 W/m2
13:59 13.9 °F 8.0 °F 30.23 in NNW 7.0 mph 10.0 mph 77% 0.00 in 587.00 W/m2
14:04 13.6 °F 8.0 °F 30.23 in NW 10.0 mph 11.0 mph 78% 0.00 in 587.00 W/m2
14:09 13.0 °F 7.7 °F 30.23 in NW 8.0 mph 12.0 mph 79% 0.00 in 584.00 W/m2
14:14 12.8 °F 7.5 °F 30.24 in NNW 8.0 mph 12.0 mph 79% 0.00 in 578.00 W/m2
14:19 12.7 °F 7.4 °F 30.24 in NW 7.0 mph 10.0 mph 79% 0.00 in 573.00 W/m2
14:24 13.0 °F 8.0 °F 30.23 in NW 8.0 mph 10.0 mph 80% 0.00 in 568.00 W/m2
14:29 13.0 °F 7.7 °F 30.23 in WNW 7.0 mph 11.0 mph 79% 0.00 in 563.00 W/m2
14:34 12.8 °F 7.5 °F 30.24 in NW 7.0 mph 11.0 mph 79% 0.00 in 552.00 W/m2
14:39 12.7 °F 7.4 °F 30.24 in NW 8.0 mph 10.0 mph 79% 0.00 in 547.00 W/m2
14:44 13.0 °F 7.7 °F 30.24 in NNW 9.0 mph 10.0 mph 79% 0.00 in 541.00 W/m2
14:49 13.2 °F 7.9 °F 30.23 in NNW 8.0 mph 10.0 mph 79% 0.00 in 538.00 W/m2
14:54 12.9 °F 7.3 °F 30.25 in NW 7.0 mph 12.0 mph 78% 0.00 in 534.00 W/m2
14:59 12.8 °F 7.5 °F 30.25 in NW 7.0 mph 12.0 mph 79% 0.00 in 533.00 W/m2
15:04 12.9 °F 7.3 °F 30.25 in NNW 6.0 mph 12.0 mph 78% 0.00 in 527.00 W/m2
15:09 13.1 °F 7.5 °F 30.25 in NNW 9.0 mph 10.0 mph 78% 0.00 in 522.00 W/m2
15:14 13.1 °F 7.5 °F 30.25 in NNW 11.0 mph 12.0 mph 78% 0.00 in 515.00 W/m2
15:19 13.2 °F 7.6 °F 30.25 in NNW 9.0 mph 13.0 mph 78% 0.00 in 506.00 W/m2
15:24 13.3 °F 7.7 °F 30.26 in NNW 7.0 mph 13.0 mph 78% 0.00 in 497.00 W/m2
15:29 13.6 °F 8.0 °F 30.26 in NNW 8.0 mph 11.0 mph 78% 0.00 in 487.00 W/m2
15:34 13.6 °F 7.7 °F 30.26 in North 8.0 mph 10.0 mph 77% 0.00 in 476.00 W/m2
15:39 14.1 °F 8.5 °F 30.26 in North 10.0 mph 11.0 mph 78% 0.00 in 459.00 W/m2
15:44 14.5 °F 8.3 °F 30.26 in NNW 8.0 mph 12.0 mph 76% 0.00 in 448.00 W/m2
15:49 14.6 °F 8.1 °F 30.26 in NNW 7.0 mph 12.0 mph 75% 0.00 in 439.00 W/m2
15:54 14.6 °F 8.1 °F 30.26 in North 7.0 mph 10.0 mph 75% 0.00 in 427.00 W/m2
15:59 14.2 °F 7.4 °F 30.27 in NNW 7.0 mph 10.0 mph 74% 0.00 in 413.00 W/m2
16:04 13.4 °F 7.0 °F 30.27 in North 7.0 mph 10.0 mph 75% 0.00 in 399.00 W/m2
16:09 13.0 °F 6.9 °F 30.27 in NNW 7.0 mph 10.0 mph 76% 0.00 in 385.00 W/m2
16:14 12.7 °F 6.6 °F 30.28 in NNW 7.0 mph 9.0 mph 76% 0.00 in 373.00 W/m2
16:19 12.6 °F 6.8 °F 30.28 in NNW 7.0 mph 9.0 mph 77% 0.00 in 360.00 W/m2
16:24 12.8 °F 6.9 °F 30.28 in NNW 6.0 mph 9.0 mph 77% 0.00 in 345.00 W/m2
16:29 12.8 °F 6.9 °F 30.28 in NNW 5.0 mph 8.0 mph 77% 0.00 in 330.00 W/m2
16:34 13.1 °F 7.2 °F 30.28 in North 3.0 mph 7.0 mph 77% 0.00 in 315.00 W/m2
16:39 13.6 °F 7.4 °F 30.28 in NNW 4.0 mph 6.0 mph 76% 0.00 in 299.00 W/m2
16:44 13.1 °F 6.7 °F 30.29 in NNW 5.0 mph 5.0 mph 75% 0.00 in 279.00 W/m2
16:49 12.6 °F 6.2 °F 30.29 in NNW 5.0 mph 6.0 mph 75% 0.00 in 260.00 W/m2
16:54 12.3 °F 6.2 °F 30.29 in NNW 5.0 mph 7.0 mph 76% 0.00 in 241.00 W/m2
16:59 12.1 °F 6.0 °F 30.29 in NNW 5.0 mph 7.0 mph 76% 0.00 in 220.00 W/m2
17:04 12.1 °F 6.3 °F 30.30 in NNW 3.0 mph 6.0 mph 77% 0.00 in 199.00 W/m2
17:09 12.0 °F 5.9 °F 30.30 in NNW 4.0 mph 6.0 mph 76% 0.00 in 181.00 W/m2
17:14 11.7 °F 5.6 °F 30.30 in NNW 4.0 mph 5.0 mph 76% 0.00 in 160.00 W/m2
17:19 11.9 °F 5.8 °F 30.29 in NNW 4.0 mph 5.0 mph 76% 0.00 in 144.00 W/m2
17:24 12.3 °F 6.2 °F 30.30 in NNW 3.0 mph 5.0 mph 76% 0.00 in 118.00 W/m2
17:29 12.2 °F 5.8 °F 30.30 in NNW 1.0 mph 5.0 mph 75% 0.00 in 111.00 W/m2
17:34 12.3 °F 5.9 °F 30.30 in Calm   4.0 mph 75% 0.00 in 102.00 W/m2
17:39 12.7 °F 6.3 °F 30.30 in Calm   2.0 mph 75% 0.00 in 84.00 W/m2
17:44 13.1 °F 6.7 °F 30.30 in Calm   1.0 mph 75% 0.00 in 70.00 W/m2
17:49 13.2 °F 6.2 °F 30.30 in North 3.0 mph 4.0 mph 73% 0.00 in 53.00 W/m2
17:54 12.9 °F 5.6 °F 30.31 in North 3.0 mph 4.0 mph 72% 0.00 in 33.00 W/m2
17:59 11.9 °F 4.6 °F 30.31 in NNE 4.0 mph 5.0 mph 72% 0.00 in 23.00 W/m2
18:04 11.0 °F 3.7 °F 30.31 in NNE 3.0 mph 5.0 mph 72% 0.00 in 19.00 W/m2
18:09 10.0 °F 3.1 °F 30.31 in NNE 4.0 mph 5.0 mph 73% 0.00 in 16.00 W/m2
18:14 9.2 °F 2.9 °F 30.31 in NNE 4.0 mph 5.0 mph 75% 0.00 in 12.00 W/m2
18:19 8.6 °F 2.6 °F 30.32 in NNE 3.0 mph 5.0 mph 76% 0.00 in 11.00 W/m2
18:24 8.1 °F 2.4 °F 30.32 in NNE 4.0 mph 5.0 mph 77% 0.00 in 7.00 W/m2
18:29 7.6 °F 2.2 °F 30.32 in North 4.0 mph 5.0 mph 78% 0.00 in 5.00 W/m2
18:34 7.1 °F 1.7 °F 30.33 in North 4.0 mph 5.0 mph 78% 0.00 in 0.00 W/m2
18:39 6.7 °F 1.6 °F 30.33 in NNE 4.0 mph 5.0 mph 79% 0.00 in 0.00 W/m2
18:44 6.3 °F 1.4 °F 30.33 in North 4.0 mph 5.0 mph 80% 0.00 in 0.00 W/m2
18:49 5.9 °F 1.1 °F 30.34 in North 3.0 mph 5.0 mph 80% 0.00 in 0.00 W/m2
18:54 5.8 °F 1.5 °F 30.34 in North 1.0 mph 5.0 mph 82% 0.00 in 0.00 W/m2
18:59 5.6 °F 1.3 °F 30.34 in North 2.0 mph 4.0 mph 82% 0.00 in 0.00 W/m2
19:04 5.4 °F 1.1 °F 30.34 in North 2.0 mph 3.0 mph 82% 0.00 in 0.00 W/m2
19:09 5.2 °F 1.2 °F 30.34 in North 4.0 mph 4.0 mph 83% 0.00 in 0.00 W/m2
19:14 5.1 °F 1.1 °F 30.34 in North 3.0 mph 5.0 mph 83% 0.00 in 0.00 W/m2
19:19 5.2 °F 1.4 °F 30.35 in North 2.0 mph 5.0 mph 84% 0.00 in 0.00 W/m2
19:24 5.3 °F 1.8 °F 30.35 in Calm   4.0 mph 85% 0.00 in 0.00 W/m2
19:29 5.3 °F 1.5 °F 30.35 in Calm   3.0 mph 84% 0.00 in 0.00 W/m2
19:34 5.2 °F 1.4 °F 30.35 in Calm   2.0 mph 84% 0.00 in 0.00 W/m2
19:39 5.1 °F 1.6 °F 30.35 in North 3.0 mph 3.0 mph 85% 0.00 in 0.00 W/m2
19:44 5.2 °F 1.7 °F 30.36 in North 2.0 mph 3.0 mph 85% 0.00 in 0.00 W/m2
19:49 5.3 °F 2.0 °F 30.36 in North 1.0 mph 3.0 mph 86% 0.00 in 0.00 W/m2
19:54 5.4 °F 2.1 °F 30.36 in North 2.0 mph 3.0 mph 86% 0.00 in 0.00 W/m2
19:59 5.5 °F 2.2 °F 30.36 in North 2.0 mph 2.0 mph 86% 0.00 in 0.00 W/m2
20:04 5.6 °F 2.3 °F 30.36 in North 1.0 mph 2.0 mph 86% 0.00 in 0.00 W/m2
20:09 5.5 °F 2.2 °F 30.37 in North 1.0 mph 2.0 mph 86% 0.00 in 0.00 W/m2
20:14 5.8 °F 2.5 °F 30.37 in North 1.0 mph 2.0 mph 86% 0.00 in 0.00 W/m2
20:19 5.8 °F 2.5 °F 30.37 in North 2.0 mph 3.0 mph 86% 0.00 in 0.00 W/m2
20:24 5.7 °F 2.4 °F 30.37 in NW 3.0 mph 3.0 mph 86% 0.00 in 0.00 W/m2
20:29 5.5 °F 2.2 °F 30.37 in NW 4.0 mph 4.0 mph 86% 0.00 in 0.00 W/m2
20:34 5.1 °F 1.6 °F 30.37 in NW 5.0 mph 7.0 mph 85% 0.00 in 0.00 W/m2
20:39 5.1 °F 1.8 °F 30.37 in NW 6.0 mph 8.0 mph 86% 0.00 in 0.00 W/m2
20:44 5.5 °F 2.5 °F 30.38 in NW 6.0 mph 9.0 mph 87% 0.00 in 0.00 W/m2
20:49 5.2 °F 1.9 °F 30.37 in NW 5.0 mph 9.0 mph 86% 0.00 in 0.00 W/m2
20:54 4.6 °F 1.1 °F 30.38 in WNW 4.0 mph 7.0 mph 85% 0.00 in 0.00 W/m2
20:59 4.5 °F 1.0 °F 30.38 in WNW 3.0 mph 5.0 mph 85% 0.00 in 0.00 W/m2
21:04 4.3 °F 1.0 °F 30.38 in WNW 2.0 mph 5.0 mph 86% 0.00 in 0.00 W/m2
21:09 4.0 °F 0.5 °F 30.39 in WNW 2.0 mph 4.0 mph 85% 0.00 in 0.00 W/m2
21:14 3.9 °F 0.4 °F 30.39 in WNW 1.0 mph 2.0 mph 85% 0.00 in 0.00 W/m2
21:19 4.0 °F 0.7 °F 30.39 in WNW 2.0 mph 3.0 mph 86% 0.00 in 0.00 W/m2
21:24 4.0 °F 0.7 °F 30.39 in WNW 3.0 mph 4.0 mph 86% 0.00 in 0.00 W/m2
21:29 3.9 °F 0.6 °F 30.39 in WNW 4.0 mph 5.0 mph 86% 0.00 in 0.00 W/m2
21:34 4.0 °F 0.7 °F 30.39 in WNW 6.0 mph 6.0 mph 86% 0.00 in 0.00 W/m2
21:39 4.2 °F 1.2 °F 30.39 in WNW 6.0 mph 7.0 mph 87% 0.00 in 0.00 W/m2
21:44 4.5 °F 1.5 °F 30.40 in NW 6.0 mph 9.0 mph 87% 0.00 in 0.00 W/m2
21:49 5.1 °F 1.8 °F 30.40 in NW 5.0 mph 9.0 mph 86% 0.00 in 0.00 W/m2
21:54 5.1 °F 1.3 °F 30.40 in NNW 8.0 mph 10.0 mph 84% 0.00 in 0.00 W/m2
21:59 4.7 °F 0.7 °F 30.40 in NNW 7.0 mph 10.0 mph 83% 0.00 in 0.00 W/m2
22:04 4.1 °F -0.4 °F 30.40 in NNW 7.0 mph 8.0 mph 81% 0.00 in 0.00 W/m2
22:09 3.6 °F -0.9 °F 30.40 in NNW 6.0 mph 8.0 mph 81% 0.00 in 0.00 W/m2
22:14 3.2 °F -1.6 °F 30.40 in NNW 6.0 mph 8.0 mph 80% 0.00 in 0.00 W/m2
22:19 2.8 °F -2.0 °F 30.40 in NNW 7.0 mph 8.0 mph 80% 0.00 in 0.00 W/m2
22:24 2.4 °F -2.6 °F 30.41 in NW 8.0 mph 9.0 mph 79% 0.00 in 0.00 W/m2
22:29 2.5 °F -2.3 °F 30.41 in NW 7.0 mph 10.0 mph 80% 0.00 in 0.00 W/m2
22:34 3.0 °F -1.8 °F 30.40 in NW 8.0 mph 10.0 mph 80% 0.00 in 0.00 W/m2
22:39 3.1 °F -1.9 °F 30.40 in NW 8.0 mph 10.0 mph 79% 0.00 in 0.00 W/m2
22:44 3.0 °F -2.0 °F 30.40 in NW 6.0 mph 11.0 mph 79% 0.00 in 0.00 W/m2
22:49 3.2 °F -1.8 °F 30.40 in NW 5.0 mph 11.0 mph 79% 0.00 in 0.00 W/m2
22:54 3.1 °F -2.2 °F 30.40 in NW 8.0 mph 11.0 mph 78% 0.00 in 0.00 W/m2
22:59 2.9 °F -2.4 °F 30.40 in NW 6.0 mph 10.0 mph 78% 0.00 in 0.00 W/m2
23:04 3.1 °F -1.9 °F 30.40 in NW 9.0 mph 12.0 mph 79% 0.00 in 0.00 W/m2
23:09 3.1 °F -2.2 °F 30.40 in NW 10.0 mph 13.0 mph 78% 0.00 in 0.00 W/m2
23:14 3.0 °F -2.3 °F 30.40 in NNW 10.0 mph 13.0 mph 78% 0.00 in 0.00 W/m2
23:19 3.0 °F -2.3 °F 30.40 in NW 11.0 mph 13.0 mph 78% 0.00 in 0.00 W/m2
23:24 2.7 °F -2.6 °F 30.40 in NW 12.0 mph 14.0 mph 78% 0.00 in 0.00 W/m2
23:29 2.6 °F -2.4 °F 30.41 in NW 8.0 mph 14.0 mph 79% 0.00 in 0.00 W/m2
23:34 2.5 °F -2.5 °F 30.41 in NW 7.0 mph 14.0 mph 79% 0.00 in 0.00 W/m2
23:39 2.4 °F -2.6 °F 30.41 in NW 6.0 mph 13.0 mph 79% 0.00 in 0.00 W/m2
23:44 2.4 °F -2.6 °F 30.42 in WNW 9.0 mph 12.0 mph 79% 0.00 in 0.00 W/m2
23:49 2.3 °F -2.7 °F 30.42 in NW 11.0 mph 12.0 mph 79% 0.00 in 0.00 W/m2
23:54 2.2 °F -2.6 °F 30.42 in NW 6.0 mph 12.0 mph 80% 0.00 in 0.00 W/m2
23:59 2.1 °F -2.7 °F 30.42 in NW 10.0 mph 12.0 mph 80% 0.00 in 0.00 W/m2
Bismarck, North Dakota, USA
Compliments of Weather Underground - 4 mb